Time;durP1;ratioP1;P1;durP2;ratioP2;P2;SDS_P1;SDS_P2;PMS_P1;PMS_P2;Temp;Humidity;BMP_temperature;BMP_pressure;BME280_temperature;BME280_humidity;BME280_pressure;Samples;Min_cycle;Max_cycle;Signal;HPM_P1;HPM_P2
2021/07/16 00:01:53;;;;;;;9.50;6.78;;;27.00;56.30;;;;;;5039394;28;20111;-67
2021/07/16 00:04:19;;;;;;;6.97;6.00;;;26.90;56.30;;;;;;5042376;28;20025;-67
2021/07/16 00:06:46;;;;;;;7.10;6.22;;;26.90;56.20;;;;;;5042214;28;20392;-67
2021/07/16 00:09:12;;;;;;;7.32;5.55;;;26.90;56.20;;;;;;5050284;28;20024;-67
2021/07/16 00:11:37;;;;;;;6.32;4.97;;;26.90;56.70;;;;;;5037838;28;20060;-67
2021/07/16 00:14:04;;;;;;;6.97;5.55;;;26.80;56.70;;;;;;5047069;28;20366;-67
2021/07/16 00:16:31;;;;;;;7.65;6.15;;;26.80;56.80;;;;;;5043213;28;20033;-67
2021/07/16 00:18:57;;;;;;;11.30;8.88;;;26.80;57.20;;;;;;5040398;28;20136;-67
2021/07/16 00:21:22;;;;;;;10.20;8.13;;;26.80;57.30;;;;;;5037032;28;20025;-67
2021/07/16 00:23:48;;;;;;;11.95;7.03;;;26.80;57.20;;;;;;5049790;28;20377;-67
2021/07/16 00:26:15;;;;;;;6.28;5.45;;;26.80;57.10;;;;;;5041708;28;20017;-67
2021/07/16 00:28:41;;;;;;;7.53;6.18;;;26.80;57.30;;;;;;5042393;28;20120;-67
2021/07/16 00:31:07;;;;;;;7.68;6.05;;;26.70;57.20;;;;;;5049170;28;20101;-67
2021/07/16 00:33:33;;;;;;;10.00;6.90;;;26.70;57.40;;;;;;5030593;28;20464;-68
2021/07/16 00:35:59;;;;;;;8.35;6.55;;;26.70;57.60;;;;;;5048126;28;20018;-67
2021/07/16 00:38:24;;;;;;;6.43;5.43;;;26.70;57.60;;;;;;5036183;28;20374;-67
2021/07/16 00:40:50;;;;;;;6.80;6.10;;;26.70;57.80;;;;;;5039739;28;20056;-67
2021/07/16 00:43:16;;;;;;;7.32;6.28;;;26.60;57.80;;;;;;5050453;28;20082;-67
2021/07/16 00:45:41;;;;;;;8.00;5.97;;;26.70;58.10;;;;;;5037181;28;20021;-67
2021/07/16 00:48:07;;;;;;;8.05;6.13;;;26.60;58.20;;;;;;5046770;28;20013;-67
2021/07/16 00:50:38;;;;;;;8.70;6.38;;;26.60;58.20;;;;;;5043837;28;20385;-67
2021/07/16 00:53:09;;;;;;;6.75;5.60;;;26.50;58.40;;;;;;5038795;28;20022;-67
2021/07/16 00:55:35;;;;;;;7.75;6.13;;;26.50;58.20;;;;;;5038032;28;20041;-67
2021/07/16 00:58:02;;;;;;;10.35;7.72;;;26.50;58.30;;;;;;5047230;28;20022;-67
2021/07/16 01:00:28;;;;;;;7.85;6.43;;;26.50;58.20;;;;;;5042285;28;20035;-67
2021/07/16 01:02:53;;;;;;;9.15;7.53;;;26.50;58.20;;;;;;5039277;28;20029;-67
2021/07/16 01:05:20;;;;;;;9.45;7.00;;;26.40;58.20;;;;;;5049740;28;20021;-67
2021/07/16 01:07:49;;;;;;;7.45;5.68;;;26.40;58.10;;;;;;5033686;28;20025;-67
2021/07/16 01:10:15;;;;;;;6.63;5.32;;;26.40;58.70;;;;;;5041084;28;20025;-67
2021/07/16 01:12:43;;;;;;;7.32;5.35;;;26.40;58.00;;;;;;5046972;28;20029;-67
2021/07/16 01:15:15;;;;;;;6.95;5.75;;;26.40;58.10;;;;;;5049741;28;20366;-67
2021/07/16 01:17:41;;;;;;;7.07;6.05;;;26.40;58.10;;;;;;5035170;28;20070;-67
2021/07/16 01:20:08;;;;;;;9.02;6.10;;;26.40;57.90;;;;;;5039090;28;20044;-67
2021/07/16 01:22:37;;;;;;;10.20;6.85;;;26.40;57.80;;;;;;5042171;28;20034;-67
2021/07/16 01:25:06;;;;;;;8.32;6.35;;;26.40;58.00;;;;;;5041860;28;20378;-68
2021/07/16 01:27:32;;;;;;;9.93;5.53;;;26.40;57.80;;;;;;5034985;28;20025;-67
2021/07/16 01:30:00;;;;;;;8.13;5.97;;;26.40;57.90;;;;;;5028911;28;20373;-67
2021/07/16 01:32:26;;;;;;;7.63;6.32;;;26.40;57.80;;;;;;5035638;28;20032;-67
2021/07/16 01:34:52;;;;;;;8.98;6.28;;;26.40;57.70;;;;;;5030975;28;20063;-67
2021/07/16 01:37:19;;;;;;;8.77;5.85;;;26.40;57.80;;;;;;5034028;28;20112;-67
2021/07/16 01:39:45;;;;;;;8.35;6.20;;;26.40;57.80;;;;;;5036176;28;20438;-67
2021/07/16 01:42:11;;;;;;;7.60;5.80;;;26.40;57.80;;;;;;5037325;28;20053;-67
2021/07/16 01:44:42;;;;;;;10.07;5.82;;;26.40;58.00;;;;;;5037942;28;20466;-67
2021/07/16 01:47:09;;;;;;;10.93;6.70;;;26.40;58.00;;;;;;5032046;28;20528;-67
2021/07/16 01:49:35;;;;;;;7.70;5.85;;;26.40;57.90;;;;;;5040557;28;20021;-67
2021/07/16 01:52:00;;;;;;;7.78;6.40;;;26.40;57.80;;;;;;5031539;28;20036;-67
2021/07/16 01:54:26;;;;;;;9.40;6.32;;;26.40;57.90;;;;;;5032612;28;20025;-67
2021/07/16 01:56:52;;;;;;;8.90;5.68;;;26.40;57.80;;;;;;5045879;28;20025;-67
2021/07/16 01:59:18;;;;;;;9.00;6.28;;;26.40;57.80;;;;;;5028006;28;20104;-67
2021/07/16 02:01:44;;;;;;;10.30;6.65;;;26.40;57.90;;;;;;5035349;28;20064;-67
2021/07/16 02:04:12;;;;;;;8.07;6.10;;;26.30;58.00;;;;;;5039629;28;20425;-67
2021/07/16 02:06:38;;;;;;;11.02;6.15;;;26.30;58.20;;;;;;5040875;28;20025;-67
2021/07/16 02:09:08;;;;;;;10.50;6.63;;;26.30;58.10;;;;;;5047189;28;20025;-67
2021/07/16 02:11:35;;;;;;;10.15;6.30;;;26.30;58.40;;;;;;5035917;28;20017;-67
2021/07/16 02:14:01;;;;;;;10.38;6.68;;;26.30;58.50;;;;;;5046358;28;20018;-67
2021/07/16 02:16:27;;;;;;;7.80;6.13;;;26.30;58.60;;;;;;5030622;28;20029;-67
2021/07/16 02:18:56;;;;;;;9.48;7.00;;;26.30;58.70;;;;;;5033061;28;20050;-67
2021/07/16 02:21:22;;;;;;;8.50;6.82;;;26.30;58.60;;;;;;5049367;28;20377;-67
2021/07/16 02:23:48;;;;;;;8.30;6.32;;;26.30;58.70;;;;;;5036521;28;20029;-67
2021/07/16 02:26:14;;;;;;;8.27;6.07;;;26.30;58.70;;;;;;5044345;28;20056;-67
2021/07/16 02:28:40;;;;;;;7.97;6.50;;;26.30;58.60;;;;;;5040580;28;20111;-67
2021/07/16 02:31:09;;;;;;;7.50;5.70;;;26.30;58.80;;;;;;5038950;28;20076;-67
2021/07/16 02:33:34;;;;;;;9.88;7.00;;;26.30;58.70;;;;;;5037831;28;20033;-67
2021/07/16 02:36:01;;;;;;;8.85;5.80;;;26.30;58.60;;;;;;5036646;28;20032;-67
2021/07/16 02:38:27;;;;;;;7.70;5.88;;;26.30;58.70;;;;;;5037959;28;20087;-67
2021/07/16 02:40:53;;;;;;;7.97;5.90;;;26.30;59.00;;;;;;5047884;28;20032;-67
2021/07/16 02:43:19;;;;;;;7.78;5.88;;;26.40;59.10;;;;;;5039522;28;20048;-67
2021/07/16 02:45:45;;;;;;;7.60;5.72;;;26.40;59.10;;;;;;5036661;28;20029;-67
2021/07/16 02:48:12;;;;;;;6.38;5.50;;;26.40;59.00;;;;;;5043816;28;20481;-67
2021/07/16 02:50:41;;;;;;;8.07;6.50;;;26.40;59.20;;;;;;5044409;28;20108;-67
2021/07/16 02:53:08;;;;;;;11.02;6.13;;;26.50;59.20;;;;;;5046267;28;20021;-67
2021/07/16 02:55:35;;;;;;;8.82;5.88;;;26.50;59.30;;;;;;5052211;28;20029;-67
2021/07/16 02:58:01;;;;;;;12.70;6.38;;;26.60;59.60;;;;;;5041650;28;20107;-68
2021/07/16 03:00:30;;;;;;;7.47;5.80;;;26.60;59.60;;;;;;5039933;28;20115;-67
2021/07/16 03:02:56;;;;;;;8.40;6.32;;;26.70;59.60;;;;;;5047774;28;20163;-67
2021/07/16 03:05:25;;;;;;;7.57;6.15;;;26.70;59.50;;;;;;5037963;28;20382;-67
2021/07/16 03:07:51;;;;;;;7.50;6.70;;;26.70;59.60;;;;;;5050876;28;20009;-67
2021/07/16 03:10:20;;;;;;;9.35;6.70;;;26.80;59.70;;;;;;5037853;28;20512;-67
2021/07/16 03:12:46;;;;;;;7.95;6.38;;;26.80;60.00;;;;;;5046601;28;20024;-67
2021/07/16 03:15:16;;;;;;;9.45;6.68;;;26.90;60.00;;;;;;5039637;28;20425;-67
2021/07/16 03:17:41;;;;;;;10.88;7.03;;;26.90;60.00;;;;;;5033263;28;20029;-67
2021/07/16 03:20:16;;;;;;;10.05;6.78;;;27.00;60.20;;;;;;5035841;28;20048;-67
2021/07/16 03:22:42;;;;;;;10.10;6.68;;;27.00;60.20;;;;;;5047047;28;20072;-67
2021/07/16 03:25:11;;;;;;;10.43;7.60;;;27.10;60.40;;;;;;5038772;28;20026;-67
2021/07/16 03:27:37;;;;;;;8.05;5.72;;;27.20;60.80;;;;;;5048265;28;20117;-67
2021/07/16 03:30:07;;;;;;;8.70;6.22;;;27.20;60.60;;;;;;5044519;28;20029;-67
2021/07/16 03:32:33;;;;;;;9.70;5.85;;;27.30;60.90;;;;;;5044347;28;20025;-67
2021/07/16 03:34:58;;;;;;;9.32;6.20;;;27.50;60.50;;;;;;5047652;28;20031;-67
2021/07/16 03:37:24;;;;;;;7.22;6.28;;;27.60;60.40;;;;;;5037390;28;20104;-67
2021/07/16 03:39:50;;;;;;;7.30;6.10;;;27.70;60.90;;;;;;5050135;28;20018;-67
2021/07/16 03:42:20;;;;;;;8.63;6.20;;;27.90;60.50;;;;;;5043002;28;20028;-68
2021/07/16 03:44:46;;;;;;;8.77;5.70;;;28.10;60.40;;;;;;5042359;28;20029;-68
2021/07/16 03:47:13;;;;;;;7.90;5.90;;;28.30;59.90;;;;;;5050752;28;20033;-67
2021/07/16 03:49:39;;;;;;;6.82;5.68;;;28.60;59.10;;;;;;5038030;28;20214;-67
2021/07/16 03:52:05;;;;;;;8.38;6.10;;;28.90;59.00;;;;;;5048083;28;20049;-67
2021/07/16 03:54:30;;;;;;;9.07;6.30;;;29.20;59.00;;;;;;5044749;28;20067;-67
2021/07/16 03:56:56;;;;;;;7.07;5.55;;;29.70;58.40;;;;;;5041080;28;20076;-67
2021/07/16 03:59:21;;;;;;;10.32;6.07;;;30.10;57.40;;;;;;5034934;28;20026;-67
2021/07/16 04:01:48;;;;;;;6.63;5.57;;;30.60;56.20;;;;;;5048312;28;20021;-67
2021/07/16 04:04:15;;;;;;;8.90;5.95;;;31.20;55.40;;;;;;5046557;28;20068;-67
2021/07/16 04:06:42;;;;;;;9.77;5.57;;;31.70;54.80;;;;;;5046008;28;20017;-67
2021/07/16 04:09:26;;;;;;;8.60;6.03;;;32.20;54.30;;;;;;5039178;28;20071;-68
2021/07/16 04:12:16;;;;;;;9.88;5.22;;;32.70;53.10;;;;;;5022954;28;20100;-68
2021/07/16 04:14:45;;;;;;;11.00;5.78;;;33.40;53.20;;;;;;5046336;28;20021;-68
2021/07/16 04:17:13;;;;;;;7.55;5.65;;;33.80;51.60;;;;;;5037538;28;20025;-68
2021/07/16 04:19:40;;;;;;;11.48;5.05;;;34.20;50.50;;;;;;5036880;28;20033;-68
2021/07/16 04:22:07;;;;;;;8.63;5.07;;;34.80;49.80;;;;;;5040381;28;20476;-68
2021/07/16 04:24:38;;;;;;;6.80;5.22;;;35.20;49.00;;;;;;5043366;28;20033;-68
2021/07/16 04:27:06;;;;;;;8.05;5.10;;;35.70;48.50;;;;;;5046639;28;20032;-68
2021/07/16 04:29:32;;;;;;;6.32;4.78;;;36.10;47.50;;;;;;5039914;28;20421;-68
2021/07/16 04:31:59;;;;;;;10.57;5.43;;;36.50;47.20;;;;;;5050857;28;20032;-68
2021/07/16 04:34:27;;;;;;;6.55;4.53;;;36.90;46.30;;;;;;5044142;28;20025;-68
2021/07/16 04:36:54;;;;;;;6.00;4.38;;;37.20;46.00;;;;;;5047000;28;20033;-68
2021/07/16 04:39:20;;;;;;;5.78;4.88;;;37.50;45.40;;;;;;5037225;28;20030;-68
2021/07/16 04:41:45;;;;;;;9.30;6.05;;;37.80;44.90;;;;;;5049923;28;20095;-68
2021/07/16 04:44:11;;;;;;;5.95;4.90;;;38.00;44.40;;;;;;5041273;28;20522;-68
2021/07/16 04:46:37;;;;;;;7.32;4.65;;;38.30;44.10;;;;;;5042392;28;20017;-68
2021/07/16 04:49:03;;;;;;;6.28;5.20;;;38.60;43.70;;;;;;5048355;28;20033;-68
2021/07/16 04:51:30;;;;;;;5.97;4.70;;;39.00;43.60;;;;;;5037020;28;20136;-68
2021/07/16 04:53:57;;;;;;;7.30;4.43;;;39.30;43.30;;;;;;5039111;28;20044;-68
2021/07/16 04:56:24;;;;;;;6.18;5.32;;;39.50;42.80;;;;;;5044223;28;20037;-68
2021/07/16 04:58:50;;;;;;;8.10;5.18;;;39.70;42.10;;;;;;5046189;28;20033;-68
2021/07/16 05:01:17;;;;;;;8.57;5.10;;;40.00;42.10;;;;;;5035942;28;20021;-68
2021/07/16 05:03:43;;;;;;;7.55;5.18;;;40.10;41.80;;;;;;5023574;28;20113;-68
2021/07/16 05:06:12;;;;;;;6.95;5.45;;;40.30;41.60;;;;;;5039693;28;20473;-68
2021/07/16 05:08:39;;;;;;;8.02;5.20;;;40.40;41.40;;;;;;5033020;28;20029;-68
2021/07/16 05:11:04;;;;;;;7.93;5.10;;;40.60;41.10;;;;;;5033397;28;20032;-68
2021/07/16 05:13:32;;;;;;;9.40;5.53;;;40.80;41.10;;;;;;5034285;28;20029;-68
2021/07/16 05:15:59;;;;;;;5.72;4.95;;;40.90;41.10;;;;;;5024358;28;20383;-68
2021/07/16 05:18:25;;;;;;;7.03;5.60;;;41.00;41.20;;;;;;5042019;28;20021;-68
2021/07/16 05:20:50;;;;;;;6.00;5.03;;;41.10;40.60;;;;;;5027944;28;20473;-68
2021/07/16 05:23:16;;;;;;;5.95;5.28;;;41.20;40.60;;;;;;5032525;28;20489;-68
2021/07/16 05:25:42;;;;;;;10.95;5.45;;;41.20;40.50;;;;;;5047432;28;20456;-68
2021/07/16 05:28:07;;;;;;;6.95;5.00;;;41.20;40.60;;;;;;5038233;28;20021;-68
2021/07/16 05:30:33;;;;;;;6.88;5.35;;;41.10;40.40;;;;;;5034258;28;20033;-68
2021/07/16 05:32:59;;;;;;;6.18;5.35;;;40.90;40.50;;;;;;5028568;28;20029;-67
2021/07/16 05:35:24;;;;;;;8.13;5.15;;;40.50;41.00;;;;;;5032078;28;20033;-68
2021/07/16 05:37:51;;;;;;;5.43;4.85;;;40.00;41.20;;;;;;5030887;28;20568;-67
2021/07/16 05:40:17;;;;;;;5.93;4.65;;;39.40;41.40;;;;;;5029218;28;20041;-67
2021/07/16 05:42:43;;;;;;;5.97;5.30;;;38.80;42.30;;;;;;5029051;28;20461;-68
2021/07/16 05:45:08;;;;;;;6.40;5.80;;;38.30;43.20;;;;;;5026716;28;20025;-68
2021/07/16 05:47:34;;;;;;;5.43;4.72;;;37.80;43.80;;;;;;5026296;28;20075;-67
2021/07/16 05:50:00;;;;;;;7.03;4.45;;;37.30;44.40;;;;;;5033586;28;20488;-67
2021/07/16 05:52:27;;;;;;;6.00;4.30;;;36.80;44.90;;;;;;5030003;28;20456;-68
2021/07/16 05:54:53;;;;;;;6.10;4.13;;;36.40;45.70;;;;;;5026494;28;20029;-67
2021/07/16 05:57:20;;;;;;;6.10;4.20;;;36.10;46.30;;;;;;5024274;28;21021;-66
2021/07/16 05:59:46;;;;;;;4.90;4.40;;;35.70;46.70;;;;;;5023920;28;20029;-67
2021/07/16 06:02:11;;;;;;;6.55;4.10;;;35.40;47.40;;;;;;5022319;28;20073;-68
2021/07/16 06:04:37;;;;;;;6.03;4.75;;;35.10;48.00;;;;;;5015326;28;20064;-68
2021/07/16 06:07:03;;;;;;;7.32;4.80;;;34.90;48.60;;;;;;5022563;28;20037;-67
2021/07/16 06:09:29;;;;;;;5.22;4.72;;;34.70;48.90;;;;;;5018217;28;20033;-68
2021/07/16 06:11:55;;;;;;;7.65;5.03;;;34.50;49.40;;;;;;5022694;28;20033;-68
2021/07/16 06:14:22;;;;;;;7.10;4.80;;;34.30;49.40;;;;;;5012315;28;20034;-67
2021/07/16 06:16:51;;;;;;;5.95;5.03;;;34.20;49.90;;;;;;5024274;28;20018;-67
2021/07/16 06:19:18;;;;;;;8.27;5.40;;;34.00;49.90;;;;;;5023542;28;20060;-67
2021/07/16 06:21:45;;;;;;;7.07;5.20;;;33.90;50.30;;;;;;5019143;28;20026;-67
2021/07/16 06:24:11;;;;;;;5.60;4.60;;;33.80;51.20;;;;;;5021379;28;20044;-67
2021/07/16 06:26:37;;;;;;;5.60;4.55;;;33.70;50.90;;;;;;5024233;28;20108;-66
2021/07/16 06:29:04;;;;;;;10.40;5.40;;;33.60;50.80;;;;;;5025259;28;20025;-67
2021/07/16 06:31:29;;;;;;;5.90;4.55;;;33.50;51.20;;;;;;5017283;28;20038;-67
2021/07/16 06:33:55;;;;;;;7.57;5.05;;;33.40;51.60;;;;;;5016730;28;20703;-66
2021/07/16 06:36:21;;;;;;;6.03;5.15;;;33.30;51.80;;;;;;5018134;28;20024;-67
2021/07/16 06:38:47;;;;;;;5.80;4.88;;;33.20;52.00;;;;;;5014678;28;20048;-69
2021/07/16 06:41:13;;;;;;;5.93;5.07;;;33.20;52.30;;;;;;5018533;28;20031;-69
2021/07/16 06:43:39;;;;;;;7.20;5.63;;;33.00;52.50;;;;;;5016732;28;20628;-68
2021/07/16 06:46:05;;;;;;;5.60;5.03;;;33.00;52.80;;;;;;5020178;28;20030;-69
2021/07/16 06:48:31;;;;;;;5.22;4.45;;;32.90;53.00;;;;;;5023295;28;20022;-69
2021/07/16 06:50:57;;;;;;;6.25;5.30;;;32.90;53.30;;;;;;5016771;28;20083;-69
2021/07/16 06:53:22;;;;;;;5.88;5.18;;;32.80;53.60;;;;;;5019709;28;20037;-70
2021/07/16 06:55:48;;;;;;;6.90;5.35;;;32.80;53.60;;;;;;5016119;28;20069;-69
2021/07/16 06:58:14;;;;;;;7.05;5.65;;;32.70;53.60;;;;;;5017987;28;20169;-69
2021/07/16 07:00:40;;;;;;;7.05;5.72;;;32.70;53.80;;;;;;5012260;28;20620;-66
2021/07/16 07:03:06;;;;;;;7.70;5.30;;;32.70;54.10;;;;;;5018468;28;20037;-66
2021/07/16 07:05:33;;;;;;;8.30;5.72;;;32.60;54.10;;;;;;5017348;28;20604;-65
2021/07/16 07:07:58;;;;;;;6.63;5.97;;;32.50;54.30;;;;;;5016946;28;20064;-66
2021/07/16 07:10:24;;;;;;;7.00;5.95;;;32.50;54.60;;;;;;5014303;28;20109;-66
2021/07/16 07:12:50;;;;;;;6.85;5.88;;;32.50;55.00;;;;;;5016120;28;20057;-68
2021/07/16 07:15:16;;;;;;;7.25;5.75;;;32.40;55.20;;;;;;5011941;28;20098;-69
2021/07/16 07:17:42;;;;;;;8.45;5.72;;;32.40;55.80;;;;;;5013134;28;20060;-70
2021/07/16 07:20:09;;;;;;;7.32;6.30;;;32.40;56.50;;;;;;5015037;28;20083;-67
2021/07/16 07:22:35;;;;;;;7.68;6.05;;;32.40;56.10;;;;;;5015366;28;20036;-66
2021/07/16 07:25:01;;;;;;;9.63;5.97;;;32.30;56.20;;;;;;5014698;28;20029;-67
2021/07/16 07:27:27;;;;;;;11.25;5.70;;;32.30;56.40;;;;;;5015486;28;20929;-68
2021/07/16 07:29:52;;;;;;;6.88;5.85;;;32.30;56.50;;;;;;5015997;28;20549;-69
2021/07/16 07:32:19;;;;;;;7.80;6.60;;;32.30;56.80;;;;;;5017065;28;20036;-69
2021/07/16 07:34:45;;;;;;;7.85;6.15;;;32.30;56.90;;;;;;5013479;28;20044;-67
2021/07/16 07:37:11;;;;;;;7.05;6.35;;;32.20;56.90;;;;;;5015632;28;20034;-68
2021/07/16 07:39:37;;;;;;;6.78;5.65;;;32.20;57.10;;;;;;5016942;28;20033;-69
2021/07/16 07:42:02;;;;;;;7.35;6.03;;;32.20;57.50;;;;;;5018862;28;20469;-69
2021/07/16 07:44:28;;;;;;;8.85;6.47;;;32.20;57.60;;;;;;5016313;28;20069;-68
2021/07/16 07:46:54;;;;;;;8.23;7.00;;;32.20;57.60;;;;;;5020962;28;20025;-70
2021/07/16 07:49:19;;;;;;;8.77;6.22;;;32.20;57.70;;;;;;5018918;28;20029;-66
2021/07/16 07:51:45;;;;;;;8.77;7.10;;;32.20;57.80;;;;;;5015088;28;20022;-67
2021/07/16 07:54:11;;;;;;;6.93;6.22;;;32.20;58.20;;;;;;5021912;28;20110;-67
2021/07/16 07:56:38;;;;;;;8.30;6.82;;;32.10;58.30;;;;;;5016716;28;20493;-67
2021/07/16 07:59:05;;;;;;;7.32;6.05;;;32.20;58.30;;;;;;5009014;28;20037;-67
2021/07/16 08:01:33;;;;;;;12.93;6.53;;;32.20;58.20;;;;;;5014996;28;20064;-67
2021/07/16 08:03:59;;;;;;;7.20;6.43;;;32.20;58.00;;;;;;5010844;28;21012;-67
2021/07/16 08:06:25;;;;;;;9.63;7.00;;;32.20;57.60;;;;;;5014982;28;20163;-67
2021/07/16 08:08:51;;;;;;;13.00;6.70;;;32.10;57.60;;;;;;5014495;28;20104;-67
2021/07/16 08:11:17;;;;;;;7.57;6.25;;;32.10;57.30;;;;;;5012446;28;20025;-67
2021/07/16 08:13:43;;;;;;;6.80;6.20;;;32.10;57.20;;;;;;5012275;28;20099;-66
2021/07/16 08:16:09;;;;;;;6.85;6.25;;;32.10;57.40;;;;;;5012039;28;20034;-65
2021/07/16 08:18:34;;;;;;;7.28;6.57;;;32.10;57.20;;;;;;5015570;28;20052;-67
2021/07/16 08:21:00;;;;;;;9.60;6.55;;;32.00;57.20;;;;;;5018443;28;20520;-66
2021/07/16 08:23:26;;;;;;;8.80;6.55;;;32.00;57.40;;;;;;5011397;28;20033;-67
2021/07/16 08:25:52;;;;;;;9.43;6.28;;;32.00;57.50;;;;;;5013132;28;20044;-67
2021/07/16 08:28:18;;;;;;;11.73;6.72;;;32.00;57.30;;;;;;5014773;28;20116;-66
2021/07/16 08:30:43;;;;;;;7.97;6.32;;;32.00;57.40;;;;;;5010109;28;20036;-67
2021/07/16 08:33:09;;;;;;;7.63;6.53;;;32.00;57.80;;;;;;5006374;28;20030;-68
2021/07/16 08:35:35;;;;;;;10.50;6.95;;;31.90;58.00;;;;;;5002920;28;20045;-67
2021/07/16 08:38:01;;;;;;;8.23;6.63;;;31.90;58.40;;;;;;5004466;28;20112;-68
2021/07/16 08:40:27;;;;;;;7.88;6.45;;;31.90;58.60;;;;;;5009612;28;20061;-67
2021/07/16 08:42:55;;;;;;;8.70;5.93;;;31.90;58.40;;;;;;5013230;28;20038;-67
2021/07/16 08:45:21;;;;;;;7.65;6.25;;;31.90;58.20;;;;;;5009730;28;20032;-67
2021/07/16 08:47:49;;;;;;;8.98;6.90;;;31.90;58.50;;;;;;5012494;28;20030;-67
2021/07/16 08:50:16;;;;;;;6.88;6.25;;;31.90;58.80;;;;;;5000877;28;20086;-67
2021/07/16 08:52:45;;;;;;;6.78;6.15;;;31.80;58.70;;;;;;5011123;28;20033;-66
2021/07/16 08:55:12;;;;;;;7.03;6.32;;;31.80;58.80;;;;;;5012733;28;20079;-67
2021/07/16 08:57:38;;;;;;;7.78;6.90;;;31.80;58.80;;;;;;5010377;28;20037;-68
2021/07/16 09:00:06;;;;;;;8.75;7.10;;;31.70;58.80;;;;;;5016789;28;20034;-68
2021/07/16 09:02:33;;;;;;;8.52;6.80;;;31.70;59.20;;;;;;5012093;28;20716;-68
2021/07/16 09:05:01;;;;;;;6.78;6.03;;;31.70;59.20;;;;;;5010011;28;20071;-68
2021/07/16 09:07:27;;;;;;;8.52;6.18;;;31.70;59.30;;;;;;5016392;28;20026;-68
2021/07/16 09:10:10;;;;;;;7.50;6.65;;;31.60;59.50;;;;;;5016041;28;20087;-68
2021/07/16 09:12:37;;;;;;;7.82;6.05;;;31.60;59.30;;;;;;5013016;28;20032;-67
2021/07/16 09:15:14;;;;;;;7.72;6.25;;;31.60;59.50;;;;;;5016093;28;21646;-67
2021/07/16 09:17:44;;;;;;;7.85;6.35;;;31.60;59.90;;;;;;5010864;28;20042;-67
2021/07/16 09:20:21;;;;;;;;;;;31.60;59.80;;;;;;5010104;28;20057;-70
2021/07/16 09:23:10;;;;;;;6.88;6.28;;;31.50;59.50;;;;;;5015201;28;20287;-68
2021/07/16 09:25:37;;;;;;;7.45;6.28;;;31.50;59.60;;;;;;5019636;28;20504;-70
2021/07/16 09:28:05;;;;;;;7.57;5.85;;;31.50;59.40;;;;;;5008816;28;20057;-69
2021/07/16 09:30:31;;;;;;;6.88;6.22;;;31.50;59.40;;;;;;5019226;28;20053;-69
2021/07/16 09:32:59;;;;;;;6.60;6.00;;;31.50;59.40;;;;;;5008892;28;20489;-69
2021/07/16 09:35:28;;;;;;;9.05;6.22;;;31.50;59.50;;;;;;5010775;28;20028;-70
2021/07/16 09:37:55;;;;;;;8.65;6.38;;;31.40;59.20;;;;;;5008148;28;20033;-68
2021/07/16 09:40:49;;;;;;;6.82;6.18;;;31.40;58.80;;;;;;5013082;28;20859;-71
2021/07/16 09:43:18;;;;;;;5.85;5.30;;;31.40;58.90;;;;;;5028439;28;20037;-68
2021/07/16 09:46:05;;;;;;;7.05;6.28;;;31.40;59.20;;;;;;5014033;28;20481;-71
2021/07/16 09:48:34;;;;;;;7.60;6.38;;;31.40;58.80;;;;;;5014623;28;20087;-69
2021/07/16 09:51:12;;;;;;;7.30;5.75;;;31.40;59.20;;;;;;5010126;28;20140;-69
2021/07/16 09:53:52;;;;;;;6.93;6.00;;;31.30;59.20;;;;;;5013490;28;20674;-71
2021/07/16 09:56:22;;;;;;;7.28;6.47;;;31.30;59.30;;;;;;5008618;28;20033;-70
2021/07/16 09:58:59;;;;;;;7.32;6.07;;;31.30;59.60;;;;;;5005806;28;20056;-67
2021/07/16 10:01:29;;;;;;;7.25;6.35;;;31.30;59.60;;;;;;5008205;28;20038;-68
2021/07/16 10:03:58;;;;;;;6.93;6.05;;;31.30;59.90;;;;;;5011003;28;20021;-68
2021/07/16 10:06:29;;;;;;;6.68;5.88;;;31.30;59.50;;;;;;5003571;28;20024;-68
2021/07/16 10:08:57;;;;;;;6.38;5.68;;;31.30;59.50;;;;;;5013723;28;20026;-68
2021/07/16 10:11:25;;;;;;;7.82;6.47;;;31.20;59.50;;;;;;5009845;28;20030;-68
2021/07/16 10:13:52;;;;;;;7.57;6.78;;;31.20;59.70;;;;;;5011516;28;20025;-68
2021/07/16 10:16:17;;;;;;;7.20;6.57;;;31.20;60.00;;;;;;5006057;28;20034;-67
2021/07/16 10:18:43;;;;;;;7.22;6.53;;;31.20;59.80;;;;;;5004409;28;20126;-69
2021/07/16 10:21:09;;;;;;;8.65;6.95;;;31.20;59.80;;;;;;5010551;28;20758;-68
2021/07/16 10:23:38;;;;;;;8.30;7.10;;;31.20;59.70;;;;;;5012210;28;20033;-68
2021/07/16 10:26:08;;;;;;;8.02;7.25;;;31.20;59.90;;;;;;5010017;28;20021;-68
2021/07/16 10:28:39;;;;;;;8.60;6.85;;;31.20;60.00;;;;;;5008568;28;20040;-66
2021/07/16 10:31:32;;;;;;;9.45;6.93;;;31.20;60.20;;;;;;5012980;28;20028;-67
2021/07/16 10:34:01;;;;;;;7.68;6.88;;;31.20;60.30;;;;;;5019210;28;20060;-68
2021/07/16 10:36:46;;;;;;;7.95;6.45;;;31.10;60.50;;;;;;5018936;28;20707;-68
2021/07/16 10:39:19;;;;;;;7.07;6.30;;;31.10;60.80;;;;;;5020083;28;20541;-68
2021/07/16 10:41:45;;;;;;;8.40;7.60;;;31.20;61.00;;;;;;5019623;28;20458;-68
2021/07/16 10:44:15;;;;;;;8.05;7.03;;;31.10;61.10;;;;;;5016021;28;20026;-67
2021/07/16 10:46:43;;;;;;;;;;;31.10;61.40;;;;;;5015240;28;20056;-68
2021/07/16 10:49:11;;;;;;;8.25;7.45;;;31.10;61.70;;;;;;5017086;28;19917;-68
2021/07/16 10:51:37;;;;;;;7.72;7.00;;;31.10;61.60;;;;;;5011280;28;20075;-68
2021/07/16 10:54:10;;;;;;;9.27;7.25;;;31.10;61.80;;;;;;5005113;28;20098;-68
2021/07/16 10:56:38;;;;;;;7.75;7.03;;;31.10;62.00;;;;;;5010478;28;20083;-68
2021/07/16 10:59:04;;;;;;;7.60;6.80;;;31.10;61.80;;;;;;5015246;28;20125;-70
2021/07/16 11:01:33;;;;;;;8.43;7.28;;;31.10;61.70;;;;;;5014683;28;20628;-68
2021/07/16 11:04:01;;;;;;;7.40;6.60;;;31.10;62.00;;;;;;5014852;28;20466;-68
2021/07/16 11:06:48;;;;;;;9.27;7.80;;;31.10;62.10;;;;;;5003535;28;20025;-68
2021/07/16 11:09:42;;;;;;;8.38;7.25;;;31.10;62.10;;;;;;5010408;28;20037;-68
2021/07/16 11:12:32;;;;;;;8.02;7.22;;;31.10;62.10;;;;;;5010560;28;20030;-66
2021/07/16 11:14:58;;;;;;;8.20;7.40;;;31.10;62.00;;;;;;5013379;28;20072;-69
2021/07/16 11:17:26;;;;;;;7.55;6.85;;;31.10;61.80;;;;;;5015283;28;20038;-68
2021/07/16 11:20:11;;;;;;;9.45;7.47;;;31.00;62.00;;;;;;5012746;28;20077;-69
2021/07/16 11:22:58;;;;;;;7.50;6.80;;;31.00;62.10;;;;;;5012280;28;20108;-68
2021/07/16 11:25:24;;;;;;;7.68;6.97;;;31.10;62.10;;;;;;5017607;28;20026;-67
2021/07/16 11:27:50;;;;;;;8.00;7.30;;;31.00;62.00;;;;;;5014563;28;20060;-68
2021/07/16 11:30:16;;;;;;;8.57;7.35;;;31.00;61.60;;;;;;5017834;28;20593;-67
2021/07/16 11:32:41;;;;;;;8.73;7.68;;;31.10;61.90;;;;;;5012490;28;20131;-69
2021/07/16 11:35:09;;;;;;;9.38;7.53;;;31.10;62.20;;;;;;5004948;28;20144;-69
2021/07/16 11:37:40;;;;;;;8.27;7.47;;;31.10;62.60;;;;;;5005641;28;20045;-70
2021/07/16 11:40:09;;;;;;;;;;;31.10;62.40;;;;;;5008041;28;20030;-69
2021/07/16 11:42:43;;;;;;;7.93;7.22;;;31.10;62.20;;;;;;5006282;28;19971;-69
2021/07/16 11:45:13;;;;;;;8.02;7.22;;;31.10;62.30;;;;;;5007064;28;20021;-69
2021/07/16 11:47:39;;;;;;;8.05;7.13;;;31.10;62.00;;;;;;5003680;28;20754;-70
2021/07/16 11:50:11;;;;;;;8.23;7.40;;;31.10;62.00;;;;;;5007040;28;20061;-70
2021/07/16 11:52:39;;;;;;;9.15;7.13;;;31.10;61.70;;;;;;5009566;28;20029;-69
2021/07/16 11:55:13;;;;;;;9.98;7.63;;;31.10;62.00;;;;;;5005837;28;20037;-69
2021/07/16 11:57:51;;;;;;;8.75;7.85;;;31.10;62.10;;;;;;5000775;28;20044;-69
2021/07/16 12:00:22;;;;;;;8.18;7.38;;;31.10;61.90;;;;;;5009448;28;20045;-69
2021/07/16 12:02:48;;;;;;;8.80;7.97;;;31.10;62.20;;;;;;5007288;28;20060;-68
2021/07/16 12:05:15;;;;;;;8.20;7.40;;;31.20;62.40;;;;;;5010624;28;20034;-70
2021/07/16 12:07:46;;;;;;;8.45;7.70;;;31.20;63.00;;;;;;5012177;28;20189;-68
2021/07/16 12:10:19;;;;;;;9.27;8.30;;;31.20;62.50;;;;;;5009762;28;20040;-70
2021/07/16 12:12:45;;;;;;;9.73;8.65;;;31.20;62.60;;;;;;5020697;28;20022;-68
2021/07/16 12:15:19;;;;;;;8.65;7.82;;;31.20;62.50;;;;;;5007353;28;21877;-68
2021/07/16 12:17:53;;;;;;;8.82;8.00;;;31.20;62.60;;;;;;5007751;28;20060;-65
2021/07/16 12:20:30;;;;;;;9.43;8.43;;;31.20;62.60;;;;;;5008974;28;20060;-68
2021/07/16 12:22:58;;;;;;;9.45;8.48;;;31.20;62.50;;;;;;5004882;28;20033;-67
2021/07/16 12:25:24;;;;;;;10.00;8.25;;;31.20;62.60;;;;;;5009043;28;22383;-68
2021/07/16 12:28:15;;;;;;;10.57;9.52;;;31.20;62.90;;;;;;5012528;28;20025;-68
2021/07/16 12:30:41;;;;;;;14.15;8.75;;;31.30;62.90;;;;;;5013385;28;20026;-66
2021/07/16 12:33:08;;;;;;;9.40;8.38;;;31.30;62.80;;;;;;5005080;28;20109;-68
2021/07/16 12:35:39;;;;;;;10.55;8.93;;;31.40;62.30;;;;;;5005089;28;20041;-65
2021/07/16 12:38:08;;;;;;;10.10;8.45;;;31.40;61.80;;;;;;5003877;28;20041;-68
2021/07/16 12:40:35;;;;;;;9.45;8.55;;;31.50;62.20;;;;;;5008551;28;20094;-68
2021/07/16 12:43:00;;;;;;;9.95;9.05;;;31.50;62.30;;;;;;5005134;28;20389;-67
2021/07/16 12:45:46;;;;;;;11.52;10.38;;;31.50;62.20;;;;;;5010045;28;20029;-68
2021/07/16 12:48:28;;;;;;;10.75;9.77;;;31.60;63.60;;;;;;5005936;28;20482;-67
2021/07/16 12:51:04;;;;;;;11.68;10.48;;;31.60;62.30;;;;;;5004298;28;20040;-67